Time;durP1;ratioP1;P1;durP2;ratioP2;P2;SDS_P1;SDS_P2;PMS_P1;PMS_P2;Temp;Humidity;BMP_temperature;BMP_pressure;BME280_temperature;BME280_humidity;BME280_pressure;Samples;Min_cycle;Max_cycle;Signal;HPM_P1;HPM_P2
2022/05/05 00:02:07;;;;;;;;;12.00;9.50;;;;;16.64;40.08;101594.88;5039239;28;45507;-61
2022/05/05 00:04:33;;;;;;;;;7.25;7.00;;;;;16.61;40.05;101590.50;5038816;28;45384;-61
2022/05/05 00:07:00;;;;;;;;;11.75;10.50;;;;;16.54;39.81;101586.25;5021228;28;45630;-61
2022/05/05 00:09:26;;;;;;;;;10.50;10.00;;;;;16.61;39.98;101605.56;5039374;28;45250;-61
2022/05/05 00:14:35;;;;;;;;;10.25;9.00;;;;;16.53;40.04;101598.66;5040582;28;45371;-61
2022/05/05 00:17:03;;;;;;;;;11.25;10.75;;;;;16.53;40.17;101596.03;5042366;28;45353;-61
2022/05/05 00:19:30;;;;;;;;;13.50;9.50;;;;;16.53;40.19;101601.31;5042827;28;45316;-61
2022/05/05 00:21:56;;;;;;;;;10.75;9.75;;;;;16.53;40.13;101605.78;5042315;28;45249;-61
2022/05/05 00:24:23;;;;;;;;;11.25;10.25;;;;;16.50;40.30;101605.84;5042357;28;45604;-61
2022/05/05 00:26:48;;;;;;;;;13.75;12.00;;;;;16.50;40.04;101604.06;5042245;28;45329;-61
2022/05/05 00:29:15;;;;;;;;;7.50;7.25;;;;;16.49;39.96;101604.97;5042692;28;45259;-61
2022/05/05 00:31:41;;;;;;;;;13.00;12.00;;;;;16.46;40.15;101607.69;5042375;28;45378;-61
2022/05/05 00:34:07;;;;;;;;;12.50;12.25;;;;;16.45;40.29;101608.59;5042049;28;45302;-61
2022/05/05 00:36:32;;;;;;;;;12.50;11.75;;;;;16.39;40.44;101601.69;5037576;28;45337;-61
2022/05/05 00:38:58;;;;;;;;;10.00;8.25;;;;;16.39;40.15;101604.31;5042558;28;45298;-61
2022/05/05 00:41:23;;;;;;;;;13.75;12.25;;;;;16.36;40.35;101604.41;5042237;28;45485;-61
2022/05/05 00:43:49;;;;;;;;;9.00;8.00;;;;;16.30;40.24;101591.31;5042121;28;45418;-61
2022/05/05 00:46:15;;;;;;;;;9.25;8.00;;;;;16.28;40.02;101597.56;5059723;28;45309;-61
2022/05/05 00:48:43;;;;;;;;;10.00;10.00;;;;;16.25;40.48;101609.97;5043983;28;45285;-61
2022/05/05 00:51:09;;;;;;;;;10.50;8.75;;;;;16.19;40.02;101594.22;5062088;28;45364;-61
2022/05/05 00:53:35;;;;;;;;;11.50;8.75;;;;;16.18;40.23;101597.75;5062000;28;45324;-61
2022/05/05 00:56:07;;;;;;;;;9.25;9.25;;;;;16.14;40.32;101604.06;5062093;28;45233;-61
2022/05/05 00:58:33;;;;;;;;;7.25;6.75;;;;;16.09;40.00;101606.81;5050186;28;45331;-61
2022/05/05 01:01:06;;;;;;;;;11.50;7.25;;;;;16.06;40.30;101606.00;5041678;28;45358;-61
2022/05/05 01:03:34;;;;;;;;;8.50;8.25;;;;;16.01;40.34;101600.84;5041688;28;45340;-61
2022/05/05 01:06:00;;;;;;;;;12.75;9.00;;;;;15.97;40.42;101604.44;5041583;28;45478;-61
2022/05/05 01:08:25;;;;;;;;;10.50;10.50;;;;;15.93;40.14;101602.78;5041844;28;45365;-61
2022/05/05 01:10:50;;;;;;;;;12.50;10.25;;;;;15.89;40.50;101601.97;5041412;28;45266;-61
2022/05/05 01:13:16;;;;;;;;;11.25;10.00;;;;;15.83;40.49;101602.09;5041694;28;45318;-61
2022/05/05 01:15:42;;;;;;;;;10.00;8.75;;;;;15.76;40.28;101604.00;5040059;28;45639;-61
2022/05/05 01:18:07;;;;;;;;;6.25;6.25;;;;;15.72;40.54;101601.44;5033691;28;45261;-61
2022/05/05 01:20:55;;;;;;;;;8.50;8.50;;;;;15.69;40.41;101612.97;5041357;28;45408;-61
2022/05/05 01:23:21;;;;;;;;;15.00;13.00;;;;;15.65;40.82;101610.44;5049896;28;46164;-61
2022/05/05 01:28:33;;;;;;;;;10.00;8.75;;;;;15.52;40.46;101607.16;5041602;28;45384;-61
2022/05/05 01:30:59;;;;;;;;;5.25;5.25;;;;;15.51;40.59;101611.59;5023352;28;45535;-61
2022/05/05 01:33:26;;;;;;;;;13.00;10.75;;;;;15.49;41.08;101608.09;5040862;28;46086;-61
2022/05/05 01:35:56;;;;;;;;;13.00;10.75;;;;;15.47;40.65;101617.88;5044775;28;45277;-61
2022/05/05 01:38:30;;;;;;;;;10.75;9.25;;;;;15.44;40.72;101607.31;5043221;28;45335;-61
2022/05/05 01:40:55;;;;;;;;;6.50;5.00;;;;;15.42;40.73;101612.66;5061162;28;45399;-61
2022/05/05 01:43:21;;;;;;;;;9.75;8.75;;;;;15.36;40.75;101601.34;5061309;28;45931;-61
2022/05/05 01:45:47;;;;;;;;;10.25;6.25;;;;;15.35;40.99;101605.75;5059964;28;45307;-62
2022/05/05 01:48:13;;;;;;;;;3.25;3.25;;;;;15.37;40.97;101614.53;5043511;28;45392;-61
2022/05/05 01:50:39;;;;;;;;;6.75;6.00;;;;;15.38;40.69;101618.03;5061070;28;45340;-61
2022/05/05 01:53:06;;;;;;;;;4.00;4.00;;;;;15.36;40.70;101609.28;5061149;28;45391;-61
2022/05/05 01:55:33;;;;;;;;;4.00;3.00;;;;;15.34;40.94;101608.44;5061251;28;45265;-61
2022/05/05 01:57:59;;;;;;;;;4.75;4.75;;;;;15.33;40.59;101611.97;5046623;28;45210;-61
2022/05/05 02:00:26;;;;;;;;;7.50;5.25;;;;;15.27;40.70;101611.19;5041045;28;45540;-61
2022/05/05 02:02:52;;;;;;;;;4.00;4.00;;;;;15.25;41.27;101607.69;5040663;28;45594;-61
2022/05/05 02:05:18;;;;;;;;;4.50;4.00;;;;;15.22;40.64;101613.06;5040570;28;45254;-61
2022/05/05 02:07:45;;;;;;;;;5.25;2.75;;;;;15.23;41.29;101613.94;5023129;28;45271;-61
2022/05/05 02:10:16;;;;;;;;;5.00;5.00;;;;;15.22;40.78;101614.81;5040610;28;45482;-61
2022/05/05 02:12:44;;;;;;;;;4.75;4.75;;;;;15.18;40.89;101616.69;5040597;28;46288;-61
2022/05/05 02:15:11;;;;;;;;;3.25;3.25;;;;;15.15;41.46;101614.09;5040665;28;45250;-61
2022/05/05 02:17:40;;;;;;;;;5.75;4.25;;;;;15.16;41.01;101614.97;5040872;28;45511;-61
2022/05/05 02:20:07;;;;;;;;;5.00;5.00;;;;;15.13;41.41;101613.22;5040335;28;45445;-61
2022/05/05 02:22:33;;;;;;;;;7.00;6.00;;;;;15.12;41.47;101624.75;5040481;28;45329;-61
2022/05/05 02:24:59;;;;;;;;;10.75;9.50;;;;;15.08;41.25;101623.03;5040148;28;45401;-61
2022/05/05 02:27:25;;;;;;;;;6.00;6.00;;;;;15.06;41.48;101619.56;5040823;28;45313;-61
2022/05/05 02:29:52;;;;;;;;;8.25;8.25;;;;;14.99;41.49;101612.63;5040659;28;45258;-61
2022/05/05 02:32:18;;;;;;;;;10.75;10.50;;;;;14.99;41.67;101612.63;5040463;28;45497;-61
2022/05/05 02:34:44;;;;;;;;;7.25;6.00;;;;;14.95;41.27;101619.75;5040150;28;45283;-61
2022/05/05 02:39:54;;;;;;;;;6.25;5.00;;;;;14.90;41.81;101603.09;5040256;28;45286;-61
2022/05/05 02:42:20;;;;;;;;;11.00;11.00;;;;;14.87;41.72;101614.59;5040162;28;46869;-61
2022/05/05 02:44:46;;;;;;;;;12.75;10.00;;;;;14.83;41.40;101610.28;5045285;28;45494;-61
2022/05/05 02:47:11;;;;;;;;;11.50;10.00;;;;;14.80;41.19;101612.97;5060492;28;45261;-60
2022/05/05 02:49:36;;;;;;;;;7.25;6.75;;;;;14.77;41.46;101607.75;5060097;28;45316;-60
2022/05/05 02:52:06;;;;;;;;;9.50;7.50;;;;;14.73;41.62;101606.91;5060045;28;45312;-62
2022/05/05 02:54:47;;;;;;;;;4.25;4.00;;;;;14.70;42.02;101612.25;5060057;28;45171;-60
2022/05/05 02:57:16;;;;;;;;;7.00;7.00;;;;;14.68;41.85;101611.41;5059264;28;45368;-60
2022/05/05 02:59:42;;;;;;;;;9.50;9.50;;;;;14.65;41.49;101607.94;5040161;28;45398;-60
2022/05/05 03:02:08;;;;;;;;;12.50;8.25;;;;;14.61;42.24;101610.59;5039768;28;45306;-60
2022/05/05 03:04:33;;;;;;;;;11.25;9.50;;;;;14.57;41.73;101606.28;5039868;28;45188;-60
2022/05/05 03:06:58;;;;;;;;;9.50;7.50;;;;;14.55;42.09;101610.72;5040007;28;45250;-60
2022/05/05 03:09:24;;;;;;;;;7.00;7.00;;;;;14.54;41.84;101605.44;5040022;28;45163;-60
2022/05/05 03:11:49;;;;;;;;;9.75;7.50;;;;;14.52;42.00;101615.19;5039750;28;46233;-60
2022/05/05 03:14:14;;;;;;;;;5.00;5.00;;;;;14.52;42.06;101605.47;5039953;28;45158;-60
2022/05/05 03:16:40;;;;;;;;;10.00;8.00;;;;;14.50;42.27;101612.56;5040119;28;45441;-60
2022/05/05 03:19:05;;;;;;;;;9.25;8.50;;;;;14.47;42.04;101613.47;5039775;28;45342;-60
2022/05/05 03:21:31;;;;;;;;;9.75;7.25;;;;;14.46;42.09;101608.22;5032527;28;47587;-60
2022/05/05 03:23:56;;;;;;;;;12.75;10.25;;;;;14.43;41.85;101609.16;5039861;28;45353;-61
2022/05/05 03:26:21;;;;;;;;;11.50;9.50;;;;;14.43;42.22;101608.28;5039661;28;45611;-61
2022/05/05 03:28:47;;;;;;;;;8.25;7.50;;;;;14.41;42.46;101608.28;5039753;28;45611;-61
2022/05/05 03:31:12;;;;;;;;;8.50;8.25;;;;;14.40;42.06;101605.69;5039544;28;45549;-61
2022/05/05 03:33:37;;;;;;;;;8.50;8.00;;;;;14.34;42.34;101593.44;5039499;28;45400;-61
2022/05/05 03:36:03;;;;;;;;;14.75;13.25;;;;;14.40;42.06;101605.69;5032208;28;45366;-61
2022/05/05 03:38:29;;;;;;;;;9.50;9.50;;;;;14.37;42.75;101598.66;5039747;28;45273;-61
2022/05/05 03:40:54;;;;;;;;;7.25;7.25;;;;;14.38;42.90;101608.34;5039145;28;45379;-61
2022/05/05 03:43:20;;;;;;;;;13.75;11.75;;;;;14.35;42.64;101607.53;5025723;28;45379;-61
2022/05/05 03:45:45;;;;;;;;;12.75;12.00;;;;;14.33;42.67;101612.84;5052972;28;45306;-61
2022/05/05 03:48:11;;;;;;;;;6.00;4.75;;;;;14.30;42.59;101611.13;5059426;28;45236;-61
2022/05/05 03:50:36;;;;;;;;;16.75;13.25;;;;;14.28;42.92;101614.69;5062674;28;46251;-61
2022/05/05 03:53:02;;;;;;;;;14.00;11.00;;;;;14.28;42.75;101617.34;5063091;28;45269;-61
2022/05/05 03:55:29;;;;;;;;;13.00;13.00;;;;;14.26;43.03;101612.09;5063404;28;45138;-61
2022/05/05 03:57:54;;;;;;;;;9.00;8.25;;;;;14.21;43.37;101615.69;5038906;28;45324;-61
2022/05/05 04:00:21;;;;;;;;;9.75;9.75;;;;;14.21;42.98;101621.81;5042699;28;46166;-61
2022/05/05 04:03:30;;;;;;;;;11.00;11.00;;;;;14.20;43.12;101622.75;5042810;28;45315;-61
2022/05/05 04:05:33;;;;;;;;;10.50;10.00;;;;;14.19;43.22;101618.34;5042384;28;45481;-61
2022/05/05 04:07:59;;;;;;;;;8.50;8.50;;;;;14.20;43.50;101622.75;5025065;28;45832;-61
2022/05/05 04:10:25;;;;;;;;;12.25;12.25;;;;;14.19;43.54;101621.00;5042482;28;45364;-61
2022/05/05 04:12:50;;;;;;;;;11.00;11.00;;;;;14.20;43.64;101633.31;5024645;28;45287;-60
2022/05/05 04:15:15;;;;;;;;;10.00;10.00;;;;;14.19;43.23;101621.00;5042770;28;45326;-60
2022/05/05 04:17:41;;;;;;;;;9.00;8.25;;;;;14.18;43.30;101619.25;5042657;28;45332;-60
2022/05/05 04:20:07;;;;;;;;;8.75;8.50;;;;;14.19;43.52;101626.28;5050436;28;46883;-60
2022/05/05 04:22:33;;;;;;;;;11.50;9.25;;;;;14.19;43.52;101622.75;5042359;28;45262;-60
2022/05/05 04:24:58;;;;;;;;;10.75;9.00;;;;;14.19;43.50;101626.28;5042433;28;45176;-60
2022/05/05 04:27:24;;;;;;;;;13.25;10.00;;;;;14.16;43.79;101614.88;5042527;28;45437;-61
2022/05/05 04:29:49;;;;;;;;;12.25;12.25;;;;;14.18;43.82;101626.31;5042380;28;46384;-60
2022/05/05 04:32:15;;;;;;;;;13.75;7.75;;;;;14.15;43.98;101621.94;5042313;28;45233;-60
2022/05/05 04:34:40;;;;;;;;;11.50;10.00;;;;;14.14;43.86;101617.56;5042332;28;45265;-60
2022/05/05 04:37:06;;;;;;;;;13.75;10.25;;;;;14.14;43.98;101629.00;5029337;28;45460;-60
2022/05/05 04:39:31;;;;;;;;;10.00;8.50;;;;;14.13;44.22;101629.88;5041932;28;46215;-61
2022/05/05 04:41:57;;;;;;;;;13.25;11.00;;;;;14.13;43.81;101634.31;5042206;28;45384;-60
2022/05/05 04:44:23;;;;;;;;;15.50;12.25;;;;;14.14;43.78;101638.69;5044469;28;45277;-60
2022/05/05 04:46:49;;;;;;;;;12.75;12.75;;;;;14.11;44.27;101631.69;5062247;28;45273;-60
2022/05/05 04:49:14;;;;;;;;;11.00;9.75;;;;;14.11;43.88;101636.09;5043909;28;45332;-60
2022/05/05 04:51:39;;;;;;;;;9.75;9.75;;;;;14.09;43.86;101638.75;5062110;28;45462;-60
2022/05/05 04:54:04;;;;;;;;;11.75;11.75;;;;;14.05;43.99;101644.09;5062139;28;45662;-60
2022/05/05 04:56:30;;;;;;;;;12.00;8.75;;;;;14.07;44.42;101651.09;5062164;28;45558;-60
2022/05/05 04:58:55;;;;;;;;;13.50;13.50;;;;;14.04;44.31;101645.03;5046453;28;45301;-60
2022/05/05 05:01:20;;;;;;;;;13.00;11.50;;;;;14.04;44.40;101650.31;5041822;28;45258;-61
2022/05/05 05:03:46;;;;;;;;;12.00;12.00;;;;;14.01;43.97;101655.63;5041548;28;45326;-61
2022/05/05 05:06:11;;;;;;;;;12.25;11.25;;;;;14.00;44.10;101654.75;5041887;28;45416;-61
2022/05/05 05:08:38;;;;;;;;;11.00;10.25;;;;;14.00;44.62;101661.78;5041617;28;46228;-61
2022/05/05 05:11:04;;;;;;;;;10.25;9.50;;;;;13.96;44.37;101661.84;5029012;28;45277;-61
2022/05/05 05:13:30;;;;;;;;;12.50;12.00;;;;;13.97;44.68;101663.59;5041768;28;45239;-61
2022/05/05 05:15:56;;;;;;;;;14.50;12.00;;;;;13.94;44.41;101660.97;5041943;28;45489;-61
2022/05/05 05:18:21;;;;;;;;;14.00;13.50;;;;;13.96;44.65;101666.25;5041325;28;46150;-61
2022/05/05 05:20:48;;;;;;;;;13.75;12.25;;;;;13.95;44.75;101670.66;5041567;28;45315;-61
2022/05/05 05:23:13;;;;;;;;;13.50;13.50;;;;;13.94;44.74;101670.69;5041834;28;45395;-61
2022/05/05 05:25:39;;;;;;;;;15.25;15.25;;;;;13.98;44.34;101680.31;5036816;28;45573;-67
2022/05/05 05:28:04;;;;;;;;;16.00;14.25;;;;;13.97;44.52;101678.56;5046363;28;46149;-63
2022/05/05 05:30:29;;;;;;;;;14.50;12.75;;;;;13.97;44.65;101678.56;5041434;28;45294;-62
2022/05/05 05:32:55;;;;;;;;;16.75;16.00;;;;;13.98;44.51;101682.97;5041292;28;45396;-61
2022/05/05 05:35:20;;;;;;;;;20.00;19.25;;;;;14.00;44.60;101683.81;5041149;28;45482;-61
2022/05/05 05:37:45;;;;;;;;;20.00;18.50;;;;;14.01;44.58;101688.19;5041263;28;47173;-61
2022/05/05 05:40:11;;;;;;;;;19.25;18.00;;;;;13.96;44.95;101685.63;5040960;28;45210;-61
2022/05/05 05:42:36;;;;;;;;;19.25;17.25;;;;;14.00;44.77;101688.22;5041093;28;45929;-61
2022/05/05 05:45:02;;;;;;;;;18.50;16.00;;;;;14.01;45.03;101682.91;5030731;28;45460;-61
2022/05/05 05:47:27;;;;;;;;;19.75;17.25;;;;;14.01;45.34;101682.91;5061116;28;45248;-61
2022/05/05 05:49:53;;;;;;;;;18.00;17.25;;;;;14.03;45.13;101696.97;5060979;28;45795;-61
2022/05/05 05:52:18;;;;;;;;;19.75;18.75;;;;;14.05;45.06;101691.66;5061303;28;45301;-60
2022/05/05 05:54:43;;;;;;;;;17.50;15.25;;;;;14.03;45.56;101686.41;5042968;28;46004;-61
2022/05/05 05:57:09;;;;;;;;;18.25;16.75;;;;;14.00;45.21;101685.56;5060367;28;46025;-60
2022/05/05 05:59:34;;;;;;;;;16.50;12.25;;;;;14.07;45.51;101692.53;5041111;28;45441;-62
2022/05/05 06:04:43;;;;;;;;;12.25;10.00;;;;;14.10;45.43;101700.41;5040788;28;45179;-60
2022/05/05 06:07:09;;;;;;;;;18.75;17.25;;;;;14.14;45.35;101696.84;5040849;28;45306;-62
2022/05/05 06:09:34;;;;;;;;;18.00;14.00;;;;;14.17;45.76;101702.06;5040863;28;45221;-62
2022/05/05 06:12:00;;;;;;;;;17.00;17.00;;;;;14.18;45.32;101693.25;5040205;28;45206;-62
2022/05/05 06:14:25;;;;;;;;;19.50;18.25;;;;;14.22;45.89;101699.38;5040812;28;45245;-60
2022/05/05 06:16:51;;;;;;;;;19.00;17.00;;;;;14.26;45.84;101699.31;5040578;28;46244;-61
2022/05/05 06:19:16;;;;;;;;;14.25;13.75;;;;;14.30;45.80;101695.72;5040683;28;45375;-61
2022/05/05 06:21:41;;;;;;;;;15.75;14.00;;;;;14.33;45.92;101693.94;5040762;28;45333;-61
2022/05/05 06:24:07;;;;;;;;;16.25;16.25;;;;;14.37;45.68;101699.16;5028418;28;45417;-61
2022/05/05 06:26:32;;;;;;;;;19.50;18.25;;;;;14.41;45.92;101702.63;5040278;28;45273;-61
2022/05/05 06:28:58;;;;;;;;;20.00;19.25;;;;;14.44;45.40;101698.16;5040763;28;45340;-61
2022/05/05 06:31:23;;;;;;;;;18.25;17.50;;;;;14.49;45.53;101702.50;5040538;28;45406;-61
2022/05/05 06:33:49;;;;;;;;;20.25;18.00;;;;;14.52;45.46;101707.75;5040399;28;45475;-61
2022/05/05 06:36:15;;;;;;;;;21.25;17.50;;;;;14.55;45.90;101705.94;5040293;28;45306;-61
2022/05/05 06:38:41;;;;;;;;;20.25;16.00;;;;;14.58;45.89;101707.66;5040415;28;45175;-61
2022/05/05 06:41:08;;;;;;;;;17.25;17.25;;;;;14.59;45.76;101704.09;5040129;28;45316;-61
2022/05/05 06:43:34;;;;;;;;;11.75;10.00;;;;;14.67;46.10;101709.34;5040538;28;45362;-61
2022/05/05 06:45:59;;;;;;;;;16.50;15.25;;;;;14.71;45.86;101717.19;5037414;28;46664;-61
2022/05/05 06:48:25;;;;;;;;;22.75;20.25;;;;;14.74;46.07;101713.59;5060068;28;45320;-61
2022/05/05 06:50:50;;;;;;;;;27.50;24.00;;;;;14.79;45.43;101727.63;5060201;28;45465;-61
2022/05/05 06:53:16;;;;;;;;;24.50;19.50;;;;;14.81;45.79;101723.19;5060324;28;45387;-61
2022/05/05 06:55:41;;;;;;;;;24.75;21.75;;;;;14.83;45.96;101726.72;5041986;28;46190;-61
2022/05/05 06:58:06;;;;;;;;;21.75;20.50;;;;;14.82;45.54;101721.41;5051429;28;45454;-61
2022/05/05 07:03:15;;;;;;;;;23.50;20.50;;;;;14.89;45.61;101728.34;5040033;28;45407;-61
2022/05/05 07:05:41;;;;;;;;;22.50;17.75;;;;;14.91;46.23;101727.44;5039496;28;45349;-61
2022/05/05 07:08:06;;;;;;;;;21.50;19.25;;;;;14.91;46.07;101727.44;5030109;28;45377;-60
2022/05/05 07:13:15;;;;;;;;;23.00;20.75;;;;;14.99;45.77;101737.88;5040102;28;45401;-61
2022/05/05 07:15:41;;;;;;;;;20.75;19.00;;;;;15.03;46.22;101744.00;5039844;28;45250;-61
2022/05/05 07:18:06;;;;;;;;;19.25;18.25;;;;;15.05;46.30;101739.56;5039679;28;45279;-61
2022/05/05 07:20:32;;;;;;;;;14.50;12.25;;;;;15.05;45.90;101731.63;5040135;28;45294;-61
2022/05/05 07:22:58;;;;;;;;;17.25;16.75;;;;;15.08;45.91;101735.09;5039417;28;45395;-61
2022/05/05 07:25:23;;;;;;;;;23.25;20.25;;;;;15.12;46.05;101746.53;5038644;28;46281;-61
2022/05/05 07:27:49;;;;;;;;;23.00;20.00;;;;;15.16;45.94;101742.06;5039872;28;45335;-61
2022/05/05 07:30:15;;;;;;;;;19.50;18.50;;;;;15.21;45.78;101754.28;5021980;28;45375;-61
2022/05/05 07:32:41;;;;;;;;;21.25;20.25;;;;;15.24;46.21;101748.97;5039525;28;45414;-61
2022/05/05 07:35:07;;;;;;;;;22.75;21.50;;;;;15.24;46.17;101748.97;5039232;28;45245;-60
2022/05/05 07:37:32;;;;;;;;;24.75;22.00;;;;;15.29;46.29;101754.16;5039329;28;45215;-61
2022/05/05 07:39:58;;;;;;;;;22.25;20.25;;;;;15.32;45.82;101762.06;5039518;28;45302;-61
2022/05/05 07:42:23;;;;;;;;;22.25;19.50;;;;;15.31;46.09;101757.66;5032018;28;45451;-61
2022/05/05 07:44:49;;;;;;;;;17.00;17.00;;;;;15.36;45.79;101757.59;5045313;28;46214;-61
2022/05/05 07:47:14;;;;;;;;;18.25;12.00;;;;;15.41;46.12;101763.66;5059713;28;45224;-61
2022/05/05 07:49:40;;;;;;;;;20.75;20.50;;;;;15.43;46.15;101770.69;5059440;28;45352;-61
2022/05/05 07:52:05;;;;;;;;;24.25;20.75;;;;;15.48;46.22;101767.94;5059481;28;45555;-61
2022/05/05 07:54:43;;;;;;;;;22.00;19.75;;;;;15.53;45.69;101768.72;5059353;28;46619;-61
2022/05/05 07:57:12;;;;;;;;;27.75;23.50;;;;;15.59;46.05;101773.91;5058936;28;45461;-61
2022/05/05 07:59:38;;;;;;;;;20.50;17.25;;;;;15.64;45.91;101770.31;5039276;28;45326;-61
2022/05/05 08:02:08;;;;;;;;;22.25;21.00;;;;;15.66;45.98;101764.06;5039172;28;45392;-61
2022/05/05 08:04:33;;;;;;;;;23.00;19.75;;;;;15.73;46.30;101765.69;5038936;28;46164;-61
2022/05/05 08:06:59;;;;;;;;;23.25;20.50;;;;;15.76;45.83;101764.78;5038944;28;46456;-61
2022/05/05 08:09:24;;;;;;;;;26.25;24.50;;;;;15.81;46.35;101773.50;5039257;28;45472;-60
2022/05/05 08:11:49;;;;;;;;;17.50;17.25;;;;;15.84;46.22;101772.59;5039077;28;45452;-61
2022/05/05 08:14:15;;;;;;;;;19.75;17.25;;;;;15.91;45.94;101769.78;5039151;28;45311;-61
2022/05/05 08:16:40;;;;;;;;;20.75;17.00;;;;;16.03;46.17;101778.41;5038874;28;45333;-61
2022/05/05 08:19:06;;;;;;;;;20.75;17.50;;;;;16.10;46.20;101782.69;5039065;28;45250;-61
2022/05/05 08:21:32;;;;;;;;;24.00;21.00;;;;;16.17;46.26;101786.06;5039042;28;45458;-61
2022/05/05 08:29:42;;;;;;;;;13.75;12.50;;;;;16.39;45.89;101787.34;5011504;28;45494;-61
2022/05/05 08:32:07;;;;;;;;;16.50;15.50;;;;;16.46;46.15;101788.09;5042126;28;45316;-61
2022/05/05 08:34:33;;;;;;;;;12.75;12.75;;;;;16.50;46.01;101786.25;5058540;28;46071;-61
2022/05/05 08:36:59;;;;;;;;;21.75;17.25;;;;;16.60;45.91;101786.91;5044299;28;45356;-61
2022/05/05 08:39:24;;;;;;;;;22.50;18.25;;;;;16.69;45.74;101792.00;5062440;28;45308;-61
2022/05/05 08:41:50;;;;;;;;;18.00;16.00;;;;;16.76;45.70;101790.09;5062503;28;45412;-61
2022/05/05 08:44:16;;;;;;;;;16.00;14.50;;;;;16.82;45.46;101790.81;5042567;28;48337;-61
2022/05/05 08:46:41;;;;;;;;;14.25;13.50;;;;;16.87;45.71;101786.25;5062138;28;45222;-61
2022/05/05 08:49:08;;;;;;;;;17.25;15.75;;;;;16.93;45.63;101792.34;5061928;28;45415;-62
2022/05/05 08:51:45;;;;;;;;;19.00;16.25;;;;;16.97;45.63;101797.56;5062088;28;45451;-61
2022/05/05 08:54:16;;;;;;;;;17.00;15.50;;;;;17.03;45.09;101793.88;5043669;28;47501;-61
2022/05/05 08:56:48;;;;;;;;;14.75;14.75;;;;;17.08;45.63;101793.78;5062117;28;45265;-61
2022/05/05 08:59:15;;;;;;;;;20.50;18.75;;;;;17.09;45.21;101792.88;5044024;28;45405;-61
2022/05/05 09:01:41;;;;;;;;;11.00;11.00;;;;;17.20;45.53;101799.66;5043478;28;45416;-61
2022/05/05 09:04:07;;;;;;;;;13.75;13.75;;;;;17.32;45.28;101806.44;5043160;28;46963;-61
2022/05/05 09:06:46;;;;;;;;;17.25;15.50;;;;;17.44;45.43;101799.06;5041765;28;45184;-61
2022/05/05 09:09:26;;;;;;;;;17.00;15.00;;;;;17.48;45.33;101796.31;5041682;28;45404;-61
2022/05/05 09:12:13;;;;;;;;;15.25;12.75;;;;;17.67;45.50;101806.41;5041461;28;45179;-61
2022/05/05 09:14:46;;;;;;;;;15.75;15.50;;;;;17.81;45.25;101801.59;5041753;28;46165;-61
2022/05/05 09:17:19;;;;;;;;;14.50;12.50;;;;;17.94;45.14;101799.50;5041613;28;45245;-61
2022/05/05 09:19:49;;;;;;;;;16.00;13.50;;;;;18.07;45.45;101804.47;5041534;28;45328;-61
2022/05/05 09:22:21;;;;;;;;;14.25;14.25;;;;;18.25;45.29;101808.38;5041736;28;45245;-61
2022/05/05 09:24:52;;;;;;;;;16.00;15.00;;;;;18.40;45.29;101802.63;5041215;28;46115;-62
2022/05/05 09:27:26;;;;;;;;;14.75;13.00;;;;;18.56;45.13;101811.00;5029200;28;45341;-61
2022/05/05 09:30:12;;;;;;;;;17.00;15.50;;;;;18.73;44.74;101801.59;5041589;28;45277;-62
2022/05/05 09:32:42;;;;;;;;;16.00;14.00;;;;;18.84;44.78;101797.69;5041352;28;45323;-61
2022/05/05 09:35:18;;;;;;;;;17.00;14.25;;;;;19.03;44.60;101802.47;5040949;28;45262;-61
2022/05/05 09:37:45;;;;;;;;;12.50;12.50;;;;;19.15;44.76;101801.16;5041395;28;45286;-61
2022/05/05 09:40:13;;;;;;;;;12.25;12.25;;;;;19.27;44.37;101797.19;5028015;28;45455;-62
2022/05/05 09:42:50;;;;;;;;;13.75;12.75;;;;;19.38;43.96;101797.72;5041242;28;45394;-61
2022/05/05 09:45:20;;;;;;;;;16.75;13.00;;;;;19.49;44.38;101806.19;5050552;28;45458;-62
2022/05/05 09:47:54;;;;;;;;;15.50;15.00;;;;;19.58;44.60;101794.34;5042898;28;45480;-62
2022/05/05 09:50:22;;;;;;;;;12.25;12.25;;;;;19.69;44.27;101793.97;5061321;28;45399;-62
2022/05/05 09:58:23;;;;;;;;;14.50;14.25;;;;;19.97;43.89;101796.56;5051435;28;45367;-62
2022/05/05 10:00:59;;;;;;;;;12.25;12.00;;;;;20.11;43.41;101798.69;5041148;28;45365;-62
2022/05/05 10:06:23;;;;;;;;;15.00;14.00;;;;;20.32;43.32;101795.28;5048264;28;45309;-62
2022/05/05 10:08:51;;;;;;;;;12.50;10.25;;;;;20.38;43.10;101801.22;5060942;28;45320;-62
2022/05/05 10:11:16;;;;;;;;;9.00;9.00;;;;;20.50;42.97;101797.19;5060987;28;45176;-62
2022/05/05 10:13:45;;;;;;;;;11.50;11.50;;;;;20.61;43.12;101792.31;5059622;28;45421;-62
2022/05/05 10:16:11;;;;;;;;;13.50;11.25;;;;;20.77;43.19;101795.28;5060912;28;47101;-62
2022/05/05 10:18:38;;;;;;;;;14.25;11.75;;;;;20.93;43.10;101797.34;5060515;28;45371;-62
2022/05/05 10:21:27;;;;;;;;;10.75;10.25;;;;;21.07;42.60;101797.63;5061052;28;45397;-62
2022/05/05 10:23:52;;;;;;;;;11.50;10.50;;;;;21.17;42.58;101799.91;5060883;28;45508;-62
2022/05/05 10:26:23;;;;;;;;;15.00;12.00;;;;;21.20;42.64;101794.44;5042558;28;46502;-62
2022/05/05 10:28:49;;;;;;;;;10.00;10.00;;;;;21.15;42.29;101783.94;5042732;28;45282;-62
2022/05/05 10:31:29;;;;;;;;;11.00;9.75;;;;;21.10;41.70;101784.13;5042566;28;45360;-62
2022/05/05 10:34:13;;;;;;;;;14.75;10.75;;;;;21.02;42.10;101786.25;5042354;28;45198;-62
2022/05/05 10:36:39;;;;;;;;;11.00;10.00;;;;;20.93;41.64;101792.00;5042262;28;47396;-62
2022/05/05 10:39:19;;;;;;;;;9.50;8.50;;;;;20.91;41.43;101794.72;5042257;28;45265;-62
2022/05/05 10:41:45;;;;;;;;;9.50;8.00;;;;;20.91;41.69;101785.84;5060681;28;45331;-62
2022/05/05 10:44:13;;;;;;;;;12.00;10.50;;;;;21.01;41.72;101791.69;5059270;28;45290;-61
2022/05/05 10:47:01;;;;;;;;;8.00;7.00;;;;;21.04;41.44;101791.53;5060395;28;46222;-61
2022/05/05 10:49:32;;;;;;;;;8.00;8.00;;;;;21.01;40.83;101789.88;5059908;28;45363;-62
2022/05/05 10:52:21;;;;;;;;;6.75;6.75;;;;;20.93;40.50;101792.00;5060427;28;45455;-61
2022/05/05 10:54:48;;;;;;;;;5.25;4.00;;;;;20.89;40.22;101787.69;5053470;28;45302;-62
2022/05/05 10:57:25;;;;;;;;;5.25;5.25;;;;;20.83;40.64;101779.94;5058865;28;46349;-60
2022/05/05 11:00:13;;;;;;;;;5.50;5.00;;;;;20.77;40.52;101787.25;5039873;28;45353;-62
2022/05/05 11:02:58;;;;;;;;;4.00;4.00;;;;;20.71;40.54;101792.84;5038059;28;45258;-64
2022/05/05 11:05:35;;;;;;;;;5.50;5.00;;;;;20.63;40.49;101784.25;5039217;28;45249;-63
2022/05/05 11:08:10;;;;;;;;;3.25;3.25;;;;;20.54;39.73;101796.19;5022001;28;47312;-62
2022/05/05 11:10:45;;;;;;;;;4.00;4.00;;;;;20.45;39.98;101791.19;5039764;28;45310;-62
2022/05/05 11:13:37;;;;;;;;;4.00;3.75;;;;;20.35;40.23;101793.38;5039960;28;45440;-61
2022/05/05 11:22:19;;;;;;;;;5.25;5.00;;;;;20.11;39.64;101800.47;5059788;28;45254;-61
2022/05/05 11:24:47;;;;;;;;;4.50;4.50;;;;;20.05;40.06;101788.25;5041601;28;45381;-62
2022/05/05 11:27:14;;;;;;;;;4.00;4.00;;;;;19.94;39.82;101785.13;5041572;28;46083;-61
2022/05/05 11:29:41;;;;;;;;;5.75;4.75;;;;;19.91;39.61;101793.22;5059675;28;46395;-61
2022/05/05 11:32:08;;;;;;;;;5.00;5.00;;;;;19.85;39.54;101790.78;5059630;28;45373;-62
2022/05/05 11:34:45;;;;;;;;;4.00;4.00;;;;;19.80;39.65;101788.25;5059590;28;45369;-61
2022/05/05 11:37:11;;;;;;;;;5.50;3.50;;;;;19.77;39.41;101783.03;5059795;28;45340;-61
2022/05/05 11:39:38;;;;;;;;;5.00;5.00;;;;;19.74;39.64;101788.50;5041406;28;48101;-61
2022/05/05 11:42:09;;;;;;;;;4.50;4.50;;;;;19.72;40.08;101783.22;5059568;28;45279;-61
2022/05/05 11:44:41;;;;;;;;;4.25;3.50;;;;;19.76;40.25;101783.94;5041606;28;45395;-61
2022/05/05 11:47:13;;;;;;;;;4.00;4.00;;;;;19.79;40.16;101787.38;5059433;28;45502;-61
2022/05/05 11:49:48;;;;;;;;;4.00;2.50;;;;;19.84;40.00;101789.06;5059097;28;45287;-62
2022/05/05 11:52:18;;;;;;;;;4.00;4.00;;;;;19.86;39.87;101781.84;5059390;28;45316;-62
2022/05/05 11:54:49;;;;;;;;;5.00;4.00;;;;;19.91;39.69;101788.78;5059526;28;45521;-61